Terminal Aerodrome Forecast
Issued by NWS

Home | Current Version | Previous Version | Text Only | Print | Product List | Glossary On
Versions: 1 2 3 4 5 6 7 8 9 10 11 12 13
000
FTUS45 KRIW 262300
TAFRKS
TAF
KRKS 262327Z 2700/2724 07014KT P6SM VCSH SCT030 BKN050
      TEMPO 2700/2703 4SM -SN OVC025
     FM270400 08011KT P6SM BKN045
     FM271000 09006KT P6SM SCT060
     FM271800 VRB04KT P6SM SCT070 SCT120=

USA.gov is the U.S. government's official web portal to all federal, state and local government web resources and services.